sensor_id;sensor_type;location;lat;lon;timestamp;temperature;humidity
23637;DHT22;11995;50.842;4.456;2023-04-01T00:01:16;9.50;99.90
23637;DHT22;11995;50.842;4.456;2023-04-01T00:03:44;9.60;99.90
23637;DHT22;11995;50.842;4.456;2023-04-01T00:06:15;9.60;99.90
23637;DHT22;11995;50.842;4.456;2023-04-01T00:08:44;9.60;99.90
23637;DHT22;11995;50.842;4.456;2023-04-01T00:11:16;9.60;99.90
23637;DHT22;11995;50.842;4.456;2023-04-01T00:13:45;9.60;99.90
23637;DHT22;11995;50.842;4.456;2023-04-01T00:16:13;9.60;99.90
23637;DHT22;11995;50.842;4.456;2023-04-01T00:18:41;9.60;99.90
23637;DHT22;11995;50.842;4.456;2023-04-01T00:21:09;9.60;99.90
23637;DHT22;11995;50.842;4.456;2023-04-01T00:23:39;9.60;99.90
23637;DHT22;11995;50.842;4.456;2023-04-01T00:26:07;9.60;99.90
23637;DHT22;11995;50.842;4.456;2023-04-01T00:28:35;9.60;99.90
23637;DHT22;11995;50.842;4.456;2023-04-01T00:31:06;9.70;99.90
23637;DHT22;11995;50.842;4.456;2023-04-01T00:33:34;9.60;99.90
23637;DHT22;11995;50.842;4.456;2023-04-01T00:36:13;9.70;99.90
23637;DHT22;11995;50.842;4.456;2023-04-01T00:38:42;9.70;99.90
23637;DHT22;11995;50.842;4.456;2023-04-01T00:41:12;9.70;99.90
23637;DHT22;11995;50.842;4.456;2023-04-01T00:43:43;9.70;99.90
23637;DHT22;11995;50.842;4.456;2023-04-01T00:46:11;9.70;99.90
23637;DHT22;11995;50.842;4.456;2023-04-01T00:48:46;9.60;99.90
23637;DHT22;11995;50.842;4.456;2023-04-01T00:51:22;9.70;99.90
23637;DHT22;11995;50.842;4.456;2023-04-01T00:53:52;9.60;99.90
23637;DHT22;11995;50.842;4.456;2023-04-01T00:56:24;9.60;99.90
23637;DHT22;11995;50.842;4.456;2023-04-01T00:58:56;9.60;99.90
23637;DHT22;11995;50.842;4.456;2023-04-01T01:01:24;9.50;99.90
23637;DHT22;11995;50.842;4.456;2023-04-01T01:03:52;9.50;99.90
23637;DHT22;11995;50.842;4.456;2023-04-01T01:06:43;9.50;99.90
23637;DHT22;11995;50.842;4.456;2023-04-01T01:11:54;9.50;99.90
23637;DHT22;11995;50.842;4.456;2023-04-01T01:17:43;9.50;99.90
23637;DHT22;11995;50.842;4.456;2023-04-01T01:26:13;9.50;99.90
23637;DHT22;11995;50.842;4.456;2023-04-01T01:31:29;9.50;99.90
23637;DHT22;11995;50.842;4.456;2023-04-01T01:36:58;9.50;99.90
23637;DHT22;11995;50.842;4.456;2023-04-01T01:39:28;9.50;99.90
23637;DHT22;11995;50.842;4.456;2023-04-01T01:41:57;9.50;99.90
23637;DHT22;11995;50.842;4.456;2023-04-01T01:44:28;9.50;99.90
23637;DHT22;11995;50.842;4.456;2023-04-01T01:46:57;9.50;99.90
23637;DHT22;11995;50.842;4.456;2023-04-01T01:49:29;9.50;99.90
23637;DHT22;11995;50.842;4.456;2023-04-01T01:51:59;9.60;99.90
23637;DHT22;11995;50.842;4.456;2023-04-01T01:54:28;9.60;99.90
23637;DHT22;11995;50.842;4.456;2023-04-01T01:57:08;9.50;99.90
23637;DHT22;11995;50.842;4.456;2023-04-01T01:59:35;9.50;99.90
23637;DHT22;11995;50.842;4.456;2023-04-01T02:02:03;9.50;99.90
23637;DHT22;11995;50.842;4.456;2023-04-01T02:04:37;9.50;99.90
23637;DHT22;11995;50.842;4.456;2023-04-01T02:07:08;9.50;99.90
23637;DHT22;11995;50.842;4.456;2023-04-01T02:09:38;9.50;99.90
23637;DHT22;11995;50.842;4.456;2023-04-01T02:12:12;9.50;99.90
23637;DHT22;11995;50.842;4.456;2023-04-01T02:14:52;9.60;99.90
23637;DHT22;11995;50.842;4.456;2023-04-01T02:17:25;9.50;99.90
23637;DHT22;11995;50.842;4.456;2023-04-01T02:20:06;9.50;99.90
23637;DHT22;11995;50.842;4.456;2023-04-01T02:22:34;9.40;99.90
23637;DHT22;11995;50.842;4.456;2023-04-01T02:25:09;9.40;99.90
23637;DHT22;11995;50.842;4.456;2023-04-01T02:27:34;9.40;99.90
23637;DHT22;11995;50.842;4.456;2023-04-01T02:30:05;9.50;99.90
23637;DHT22;11995;50.842;4.456;2023-04-01T02:32:34;9.40;99.90
23637;DHT22;11995;50.842;4.456;2023-04-01T02:35:11;9.40;99.90
23637;DHT22;11995;50.842;4.456;2023-04-01T02:37:40;9.40;99.90
23637;DHT22;11995;50.842;4.456;2023-04-01T02:40:11;9.30;99.90
23637;DHT22;11995;50.842;4.456;2023-04-01T02:42:41;9.30;99.90
23637;DHT22;11995;50.842;4.456;2023-04-01T02:45:11;9.30;99.90
23637;DHT22;11995;50.842;4.456;2023-04-01T02:47:39;9.30;99.90
23637;DHT22;11995;50.842;4.456;2023-04-01T02:50:07;9.30;99.90
23637;DHT22;11995;50.842;4.456;2023-04-01T02:52:35;9.30;99.90
23637;DHT22;11995;50.842;4.456;2023-04-01T02:55:03;9.30;99.90
23637;DHT22;11995;50.842;4.456;2023-04-01T02:57:31;9.20;99.90
23637;DHT22;11995;50.842;4.456;2023-04-01T02:59:59;9.20;99.90
23637;DHT22;11995;50.842;4.456;2023-04-01T03:02:26;9.20;99.90
23637;DHT22;11995;50.842;4.456;2023-04-01T03:04:54;9.20;99.90
23637;DHT22;11995;50.842;4.456;2023-04-01T03:07:21;9.20;99.90
23637;DHT22;11995;50.842;4.456;2023-04-01T03:09:50;9.30;99.90
23637;DHT22;11995;50.842;4.456;2023-04-01T03:12:18;9.30;99.90
23637;DHT22;11995;50.842;4.456;2023-04-01T03:14:45;9.30;99.90
23637;DHT22;11995;50.842;4.456;2023-04-01T03:17:13;9.30;99.90
23637;DHT22;11995;50.842;4.456;2023-04-01T03:19:40;9.20;99.90
23637;DHT22;11995;50.842;4.456;2023-04-01T03:22:10;9.20;99.90
23637;DHT22;11995;50.842;4.456;2023-04-01T03:24:38;9.20;99.90
23637;DHT22;11995;50.842;4.456;2023-04-01T03:27:06;9.20;99.90
23637;DHT22;11995;50.842;4.456;2023-04-01T03:29:34;9.20;99.90
23637;DHT22;11995;50.842;4.456;2023-04-01T03:32:02;9.20;99.90
23637;DHT22;11995;50.842;4.456;2023-04-01T03:34:29;9.20;99.90
23637;DHT22;11995;50.842;4.456;2023-04-01T03:36:57;9.20;99.90
23637;DHT22;11995;50.842;4.456;2023-04-01T03:39:25;9.20;99.90
23637;DHT22;11995;50.842;4.456;2023-04-01T03:41:55;9.20;99.90
23637;DHT22;11995;50.842;4.456;2023-04-01T03:44:29;9.20;99.90
23637;DHT22;11995;50.842;4.456;2023-04-01T03:46:59;9.20;99.90
23637;DHT22;11995;50.842;4.456;2023-04-01T03:49:27;9.20;99.90
23637;DHT22;11995;50.842;4.456;2023-04-01T03:51:57;9.20;99.90
23637;DHT22;11995;50.842;4.456;2023-04-01T03:54:27;9.30;99.90
23637;DHT22;11995;50.842;4.456;2023-04-01T03:56:57;9.20;99.90
23637;DHT22;11995;50.842;4.456;2023-04-01T03:59:28;9.30;99.90
23637;DHT22;11995;50.842;4.456;2023-04-01T04:01:58;9.40;99.90
23637;DHT22;11995;50.842;4.456;2023-04-01T04:04:27;9.40;99.90
23637;DHT22;11995;50.842;4.456;2023-04-01T04:06:55;9.40;99.90
23637;DHT22;11995;50.842;4.456;2023-04-01T04:09:23;9.30;99.90
23637;DHT22;11995;50.842;4.456;2023-04-01T04:11:52;9.30;99.90
23637;DHT22;11995;50.842;4.456;2023-04-01T04:14:20;9.30;99.90
23637;DHT22;11995;50.842;4.456;2023-04-01T04:16:47;9.30;99.90
23637;DHT22;11995;50.842;4.456;2023-04-01T04:19:15;9.30;99.90
23637;DHT22;11995;50.842;4.456;2023-04-01T04:21:42;9.30;99.90
23637;DHT22;11995;50.842;4.456;2023-04-01T04:24:10;9.30;99.90
23637;DHT22;11995;50.842;4.456;2023-04-01T04:26:38;9.40;99.90
23637;DHT22;11995;50.842;4.456;2023-04-01T04:29:05;9.30;99.90
23637;DHT22;11995;50.842;4.456;2023-04-01T04:31:34;9.20;99.90
23637;DHT22;11995;50.842;4.456;2023-04-01T04:34:02;9.20;99.90
23637;DHT22;11995;50.842;4.456;2023-04-01T04:36:30;9.20;99.90
23637;DHT22;11995;50.842;4.456;2023-04-01T04:38:57;9.20;99.90
23637;DHT22;11995;50.842;4.456;2023-04-01T04:41:26;9.10;99.90
23637;DHT22;11995;50.842;4.456;2023-04-01T04:43:55;9.10;99.90
23637;DHT22;11995;50.842;4.456;2023-04-01T04:46:25;9.20;99.90
23637;DHT22;11995;50.842;4.456;2023-04-01T04:48:52;9.20;99.90
23637;DHT22;11995;50.842;4.456;2023-04-01T04:51:20;9.20;99.90
23637;DHT22;11995;50.842;4.456;2023-04-01T04:53:49;9.20;99.90
23637;DHT22;11995;50.842;4.456;2023-04-01T04:56:21;9.10;99.90
23637;DHT22;11995;50.842;4.456;2023-04-01T04:58:52;9.20;99.90
23637;DHT22;11995;50.842;4.456;2023-04-01T05:01:21;9.20;99.90
23637;DHT22;11995;50.842;4.456;2023-04-01T05:03:49;9.20;99.90
23637;DHT22;11995;50.842;4.456;2023-04-01T05:06:17;9.20;99.90
23637;DHT22;11995;50.842;4.456;2023-04-01T05:08:45;9.30;99.90
23637;DHT22;11995;50.842;4.456;2023-04-01T05:11:16;9.20;99.90
23637;DHT22;11995;50.842;4.456;2023-04-01T05:13:44;9.20;99.90
23637;DHT22;11995;50.842;4.456;2023-04-01T05:16:14;9.20;99.90
23637;DHT22;11995;50.842;4.456;2023-04-01T05:18:43;9.20;99.90
23637;DHT22;11995;50.842;4.456;2023-04-01T05:21:11;9.10;99.90
23637;DHT22;11995;50.842;4.456;2023-04-01T05:23:40;9.10;99.90
23637;DHT22;11995;50.842;4.456;2023-04-01T05:26:10;9.20;99.90
23637;DHT22;11995;50.842;4.456;2023-04-01T05:28:38;9.20;99.90
23637;DHT22;11995;50.842;4.456;2023-04-01T05:31:07;9.20;99.90
23637;DHT22;11995;50.842;4.456;2023-04-01T05:33:34;9.10;99.90
23637;DHT22;11995;50.842;4.456;2023-04-01T05:36:15;9.00;99.90
23637;DHT22;11995;50.842;4.456;2023-04-01T05:38:43;9.10;99.90
23637;DHT22;11995;50.842;4.456;2023-04-01T05:41:12;9.10;99.90
23637;DHT22;11995;50.842;4.456;2023-04-01T05:43:41;9.20;99.90
23637;DHT22;11995;50.842;4.456;2023-04-01T05:46:09;9.10;99.90
23637;DHT22;11995;50.842;4.456;2023-04-01T05:48:36;9.20;99.90
23637;DHT22;11995;50.842;4.456;2023-04-01T05:51:04;9.10;99.90
23637;DHT22;11995;50.842;4.456;2023-04-01T05:53:32;9.10;99.90
23637;DHT22;11995;50.842;4.456;2023-04-01T05:56:01;9.20;99.90
23637;DHT22;11995;50.842;4.456;2023-04-01T05:58:32;9.10;99.90
23637;DHT22;11995;50.842;4.456;2023-04-01T06:01:09;9.10;99.90
23637;DHT22;11995;50.842;4.456;2023-04-01T06:03:37;9.10;99.90
23637;DHT22;11995;50.842;4.456;2023-04-01T06:06:14;9.10;99.90
23637;DHT22;11995;50.842;4.456;2023-04-01T06:08:40;9.20;99.90
23637;DHT22;11995;50.842;4.456;2023-04-01T06:11:18;9.20;99.90
23637;DHT22;11995;50.842;4.456;2023-04-01T06:14:10;9.20;99.90
23637;DHT22;11995;50.842;4.456;2023-04-01T06:16:44;9.20;99.90
23637;DHT22;11995;50.842;4.456;2023-04-01T06:19:28;9.20;99.90
23637;DHT22;11995;50.842;4.456;2023-04-01T06:22:27;9.20;99.90
23637;DHT22;11995;50.842;4.456;2023-04-01T06:27:49;9.10;99.90
23637;DHT22;11995;50.842;4.456;2023-04-01T06:30:24;9.20;99.90
23637;DHT22;11995;50.842;4.456;2023-04-01T06:40:55;9.20;99.90
23637;DHT22;11995;50.842;4.456;2023-04-01T06:43:51;9.20;99.90
23637;DHT22;11995;50.842;4.456;2023-04-01T06:46:41;9.20;99.90
23637;DHT22;11995;50.842;4.456;2023-04-01T06:55:04;9.20;99.90
23637;DHT22;11995;50.842;4.456;2023-04-01T06:57:40;9.20;99.90
23637;DHT22;11995;50.842;4.456;2023-04-01T07:00:19;9.20;99.90
23637;DHT22;11995;50.842;4.456;2023-04-01T07:02:48;9.30;99.90
23637;DHT22;11995;50.842;4.456;2023-04-01T07:05:15;9.30;99.90
23637;DHT22;11995;50.842;4.456;2023-04-01T07:07:48;9.30;99.90
23637;DHT22;11995;50.842;4.456;2023-04-01T07:10:41;9.20;99.90
23637;DHT22;11995;50.842;4.456;2023-04-01T07:13:07;9.20;99.90
23637;DHT22;11995;50.842;4.456;2023-04-01T07:15:45;9.20;99.90
23637;DHT22;11995;50.842;4.456;2023-04-01T07:18:41;9.30;99.90
23637;DHT22;11995;50.842;4.456;2023-04-01T07:22:12;9.40;99.90
23637;DHT22;11995;50.842;4.456;2023-04-01T07:23:47;9.30;99.90
23637;DHT22;11995;50.842;4.456;2023-04-01T07:26:21;9.20;99.90
23637;DHT22;11995;50.842;4.456;2023-04-01T07:28:51;9.20;99.90
23637;DHT22;11995;50.842;4.456;2023-04-01T07:31:43;9.20;99.90
23637;DHT22;11995;50.842;4.456;2023-04-01T07:37:22;9.30;99.90
23637;DHT22;11995;50.842;4.456;2023-04-01T07:45:47;9.30;99.90
23637;DHT22;11995;50.842;4.456;2023-04-01T07:48:38;9.30;99.90
23637;DHT22;11995;50.842;4.456;2023-04-01T07:51:24;9.20;99.90
23637;DHT22;11995;50.842;4.456;2023-04-01T07:56:44;9.20;99.90
23637;DHT22;11995;50.842;4.456;2023-04-01T07:59:27;9.30;99.90
23637;DHT22;11995;50.842;4.456;2023-04-01T08:02:01;9.30;99.90
23637;DHT22;11995;50.842;4.456;2023-04-01T08:04:32;9.40;99.90
23637;DHT22;11995;50.842;4.456;2023-04-01T08:10:31;9.40;99.90
23637;DHT22;11995;50.842;4.456;2023-04-01T08:17:47;9.30;99.90
23637;DHT22;11995;50.842;4.456;2023-04-01T08:23:11;9.40;99.90
23637;DHT22;11995;50.842;4.456;2023-04-01T08:26:38;9.40;99.90
23637;DHT22;11995;50.842;4.456;2023-04-01T08:28:24;9.50;99.90
23637;DHT22;11995;50.842;4.456;2023-04-01T08:33:30;9.50;99.90
23637;DHT22;11995;50.842;4.456;2023-04-01T08:36:09;9.50;99.90
23637;DHT22;11995;50.842;4.456;2023-04-01T08:38:42;9.40;99.90
23637;DHT22;11995;50.842;4.456;2023-04-01T08:44:24;9.40;99.90
23637;DHT22;11995;50.842;4.456;2023-04-01T08:51:12;9.60;99.90
23637;DHT22;11995;50.842;4.456;2023-04-01T08:58:58;9.50;99.90
23637;DHT22;11995;50.842;4.456;2023-04-01T09:04:15;9.80;99.90
23637;DHT22;11995;50.842;4.456;2023-04-01T09:07:22;9.80;99.90
23637;DHT22;11995;50.842;4.456;2023-04-01T09:24:40;9.60;99.90
23637;DHT22;11995;50.842;4.456;2023-04-01T09:37:54;9.70;99.90
23637;DHT22;11995;50.842;4.456;2023-04-01T09:40:53;9.70;99.90
23637;DHT22;11995;50.842;4.456;2023-04-01T09:46:35;9.70;99.90
23637;DHT22;11995;50.842;4.456;2023-04-01T09:52:04;9.90;99.90
23637;DHT22;11995;50.842;4.456;2023-04-01T10:08:37;10.10;99.90
23637;DHT22;11995;50.842;4.456;2023-04-01T10:50:39;10.20;99.90
23637;DHT22;11995;50.842;4.456;2023-04-01T10:59:20;10.30;99.90
23637;DHT22;11995;50.842;4.456;2023-04-01T11:05:05;10.30;99.90
23637;DHT22;11995;50.842;4.456;2023-04-01T11:07:54;10.20;99.90
23637;DHT22;11995;50.842;4.456;2023-04-01T11:10:33;10.30;99.90
23637;DHT22;11995;50.842;4.456;2023-04-01T11:24:17;10.40;99.90
23637;DHT22;11995;50.842;4.456;2023-04-01T11:32:46;10.50;99.90
23637;DHT22;11995;50.842;4.456;2023-04-01T11:38:48;10.40;99.90
23637;DHT22;11995;50.842;4.456;2023-04-01T11:41:43;10.40;99.90
23637;DHT22;11995;50.842;4.456;2023-04-01T11:44:26;10.40;99.90
23637;DHT22;11995;50.842;4.456;2023-04-01T11:52:34;10.40;99.90
23637;DHT22;11995;50.842;4.456;2023-04-01T11:55:34;10.70;99.90
23637;DHT22;11995;50.842;4.456;2023-04-01T11:58:28;10.70;99.90
23637;DHT22;11995;50.842;4.456;2023-04-01T12:26:00;10.50;99.90
23637;DHT22;11995;50.842;4.456;2023-04-01T12:28:46;10.60;99.90
23637;DHT22;11995;50.842;4.456;2023-04-01T12:31:38;10.50;99.90
23637;DHT22;11995;50.842;4.456;2023-04-01T12:45:23;10.20;99.90
23637;DHT22;11995;50.842;4.456;2023-04-01T12:48:16;10.20;99.90
23637;DHT22;11995;50.842;4.456;2023-04-01T13:01:51;10.20;99.90
23637;DHT22;11995;50.842;4.456;2023-04-01T13:07:30;10.20;99.90
23637;DHT22;11995;50.842;4.456;2023-04-01T13:16:31;10.20;99.90
23637;DHT22;11995;50.842;4.456;2023-04-01T13:21:05;10.10;99.90
23637;DHT22;11995;50.842;4.456;2023-04-01T13:26:24;10.20;99.90
23637;DHT22;11995;50.842;4.456;2023-04-01T13:29:20;10.20;99.90
23637;DHT22;11995;50.842;4.456;2023-04-01T13:32:17;10.20;99.90
23637;DHT22;11995;50.842;4.456;2023-04-01T13:38:02;10.10;99.90
23637;DHT22;11995;50.842;4.456;2023-04-01T13:40:36;10.20;99.90
23637;DHT22;11995;50.842;4.456;2023-04-01T13:46:08;10.30;99.90
23637;DHT22;11995;50.842;4.456;2023-04-01T13:51:31;10.30;99.90
23637;DHT22;11995;50.842;4.456;2023-04-01T13:54:23;10.10;99.90
23637;DHT22;11995;50.842;4.456;2023-04-01T13:56:57;10.00;99.90
23637;DHT22;11995;50.842;4.456;2023-04-01T14:02:32;10.10;99.90
23637;DHT22;11995;50.842;4.456;2023-04-01T14:08:15;10.20;99.90
23637;DHT22;11995;50.842;4.456;2023-04-01T14:10:53;10.10;99.90
23637;DHT22;11995;50.842;4.456;2023-04-01T14:13:31;10.10;99.90
23637;DHT22;11995;50.842;4.456;2023-04-01T14:19:07;10.20;99.90
23637;DHT22;11995;50.842;4.456;2023-04-01T14:21:54;10.30;99.90
23637;DHT22;11995;50.842;4.456;2023-04-01T14:27:12;10.60;99.90
23637;DHT22;11995;50.842;4.456;2023-04-01T14:29:58;10.40;99.90
23637;DHT22;11995;50.842;4.456;2023-04-01T14:32:39;10.30;99.90
23637;DHT22;11995;50.842;4.456;2023-04-01T14:41:13;10.40;99.90
23637;DHT22;11995;50.842;4.456;2023-04-01T14:49:34;10.60;99.90
23637;DHT22;11995;50.842;4.456;2023-04-01T14:51:52;10.60;99.90
23637;DHT22;11995;50.842;4.456;2023-04-01T14:54:32;10.70;99.90
23637;DHT22;11995;50.842;4.456;2023-04-01T14:57:15;10.60;99.90
23637;DHT22;11995;50.842;4.456;2023-04-01T15:00:09;10.50;99.90
23637;DHT22;11995;50.842;4.456;2023-04-01T15:02:44;10.40;99.90
23637;DHT22;11995;50.842;4.456;2023-04-01T15:05:32;10.50;99.90
23637;DHT22;11995;50.842;4.456;2023-04-01T15:08:06;10.40;99.90
23637;DHT22;11995;50.842;4.456;2023-04-01T15:16:06;10.40;99.90
23637;DHT22;11995;50.842;4.456;2023-04-01T15:21:43;10.40;99.90
23637;DHT22;11995;50.842;4.456;2023-04-01T15:24:37;10.30;99.90
23637;DHT22;11995;50.842;4.456;2023-04-01T15:29:38;10.10;99.90
23637;DHT22;11995;50.842;4.456;2023-04-01T15:34:57;10.10;99.90
23637;DHT22;11995;50.842;4.456;2023-04-01T15:37:37;10.20;99.90
23637;DHT22;11995;50.842;4.456;2023-04-01T15:53:54;9.90;99.90
23637;DHT22;11995;50.842;4.456;2023-04-01T15:56:36;9.80;99.90
23637;DHT22;11995;50.842;4.456;2023-04-01T16:10:17;9.60;99.90
23637;DHT22;11995;50.842;4.456;2023-04-01T16:13:01;9.60;99.90
23637;DHT22;11995;50.842;4.456;2023-04-01T16:21:06;9.60;99.90
23637;DHT22;11995;50.842;4.456;2023-04-01T16:23:51;9.50;99.90
23637;DHT22;11995;50.842;4.456;2023-04-01T16:26:37;9.50;99.90
23637;DHT22;11995;50.842;4.456;2023-04-01T16:29:34;9.50;99.90
23637;DHT22;11995;50.842;4.456;2023-04-01T16:40:37;9.70;99.90
23637;DHT22;11995;50.842;4.456;2023-04-01T16:43:16;9.60;99.90
23637;DHT22;11995;50.842;4.456;2023-04-01T16:48:52;9.60;99.90
23637;DHT22;11995;50.842;4.456;2023-04-01T16:51:19;9.50;99.90
23637;DHT22;11995;50.842;4.456;2023-04-01T16:54:06;9.60;99.90
23637;DHT22;11995;50.842;4.456;2023-04-01T16:56:49;9.60;99.90
23637;DHT22;11995;50.842;4.456;2023-04-01T16:59:27;9.70;99.90
23637;DHT22;11995;50.842;4.456;2023-04-01T17:04:54;9.60;99.90
23637;DHT22;11995;50.842;4.456;2023-04-01T17:07:35;9.50;99.90
23637;DHT22;11995;50.842;4.456;2023-04-01T17:15:29;9.40;99.90
23637;DHT22;11995;50.842;4.456;2023-04-01T17:29:22;9.50;99.90
23637;DHT22;11995;50.842;4.456;2023-04-01T17:32:07;9.60;99.90
23637;DHT22;11995;50.842;4.456;2023-04-01T17:35:01;9.60;99.90
23637;DHT22;11995;50.842;4.456;2023-04-01T17:40:15;9.50;99.90
23637;DHT22;11995;50.842;4.456;2023-04-01T17:42:52;9.50;99.90
23637;DHT22;11995;50.842;4.456;2023-04-01T17:45:41;9.50;99.90
23637;DHT22;11995;50.842;4.456;2023-04-01T17:48:18;9.40;99.90
23637;DHT22;11995;50.842;4.456;2023-04-01T17:51:17;9.30;99.90
23637;DHT22;11995;50.842;4.456;2023-04-01T17:53:29;9.30;99.90
23637;DHT22;11995;50.842;4.456;2023-04-01T17:56:14;9.30;99.90
23637;DHT22;11995;50.842;4.456;2023-04-01T18:04:48;9.30;99.90
23637;DHT22;11995;50.842;4.456;2023-04-01T18:13:01;9.40;99.90
23637;DHT22;11995;50.842;4.456;2023-04-01T18:23:43;9.40;99.90
23637;DHT22;11995;50.842;4.456;2023-04-01T18:26:22;9.40;99.90
23637;DHT22;11995;50.842;4.456;2023-04-01T18:34:58;9.40;99.90
23637;DHT22;11995;50.842;4.456;2023-04-01T18:37:44;9.30;99.90
23637;DHT22;11995;50.842;4.456;2023-04-01T18:40:13;9.40;99.90
23637;DHT22;11995;50.842;4.456;2023-04-01T18:42:43;9.30;99.90
23637;DHT22;11995;50.842;4.456;2023-04-01T18:45:20;9.30;99.90
23637;DHT22;11995;50.842;4.456;2023-04-01T18:47:55;9.40;99.90
23637;DHT22;11995;50.842;4.456;2023-04-01T18:56:09;9.40;99.90
23637;DHT22;11995;50.842;4.456;2023-04-01T18:58:46;9.40;99.90
23637;DHT22;11995;50.842;4.456;2023-04-01T19:01:37;9.30;99.90
23637;DHT22;11995;50.842;4.456;2023-04-01T19:04:26;9.20;99.90
23637;DHT22;11995;50.842;4.456;2023-04-01T19:06:58;9.20;99.90
23637;DHT22;11995;50.842;4.456;2023-04-01T19:09:44;9.30;99.90
23637;DHT22;11995;50.842;4.456;2023-04-01T19:12:34;9.10;99.90
23637;DHT22;11995;50.842;4.456;2023-04-01T19:15:15;9.10;99.90
23637;DHT22;11995;50.842;4.456;2023-04-01T19:18:15;9.20;99.90
23637;DHT22;11995;50.842;4.456;2023-04-01T19:20:53;9.20;99.90
23637;DHT22;11995;50.842;4.456;2023-04-01T19:29:28;9.40;99.90
23637;DHT22;11995;50.842;4.456;2023-04-01T19:32:05;9.30;99.90
23637;DHT22;11995;50.842;4.456;2023-04-01T19:40:28;9.20;99.90
23637;DHT22;11995;50.842;4.456;2023-04-01T19:45:51;9.20;99.90
23637;DHT22;11995;50.842;4.456;2023-04-01T19:51:45;9.10;99.90
23637;DHT22;11995;50.842;4.456;2023-04-01T19:54:32;9.10;99.90
23637;DHT22;11995;50.842;4.456;2023-04-01T19:57:17;9.10;99.90
23637;DHT22;11995;50.842;4.456;2023-04-01T20:07:56;9.20;99.90
23637;DHT22;11995;50.842;4.456;2023-04-01T20:10:42;9.20;99.90
23637;DHT22;11995;50.842;4.456;2023-04-01T20:16:06;9.10;99.90
23637;DHT22;11995;50.842;4.456;2023-04-01T20:18:48;9.10;99.90
23637;DHT22;11995;50.842;4.456;2023-04-01T20:21:33;9.10;99.90
23637;DHT22;11995;50.842;4.456;2023-04-01T20:24:21;9.20;99.90
23637;DHT22;11995;50.842;4.456;2023-04-01T20:26:50;9.20;99.90
23637;DHT22;11995;50.842;4.456;2023-04-01T20:29:35;9.20;99.90
23637;DHT22;11995;50.842;4.456;2023-04-01T20:37:48;9.20;99.90
23637;DHT22;11995;50.842;4.456;2023-04-01T20:40:26;9.10;99.90
23637;DHT22;11995;50.842;4.456;2023-04-01T20:48:22;9.20;99.90
23637;DHT22;11995;50.842;4.456;2023-04-01T20:50:49;9.20;99.90
23637;DHT22;11995;50.842;4.456;2023-04-01T20:53:36;9.10;99.90
23637;DHT22;11995;50.842;4.456;2023-04-01T20:56:17;9.10;99.90
23637;DHT22;11995;50.842;4.456;2023-04-01T21:08:12;9.10;99.90
23637;DHT22;11995;50.842;4.456;2023-04-01T21:13:49;9.20;99.90
23637;DHT22;11995;50.842;4.456;2023-04-01T21:16:24;9.10;99.90
23637;DHT22;11995;50.842;4.456;2023-04-01T21:21:48;9.20;99.90
23637;DHT22;11995;50.842;4.456;2023-04-01T21:24:31;9.20;99.90
23637;DHT22;11995;50.842;4.456;2023-04-01T21:27:07;9.20;99.90
23637;DHT22;11995;50.842;4.456;2023-04-01T21:38:10;9.40;99.90
23637;DHT22;11995;50.842;4.456;2023-04-01T21:40:55;9.40;99.90
23637;DHT22;11995;50.842;4.456;2023-04-01T21:43:45;9.40;99.90
23637;DHT22;11995;50.842;4.456;2023-04-01T21:57:29;9.40;99.90
23637;DHT22;11995;50.842;4.456;2023-04-01T22:00:17;9.40;99.90
23637;DHT22;11995;50.842;4.456;2023-04-01T22:03:11;9.40;99.90
23637;DHT22;11995;50.842;4.456;2023-04-01T22:08:43;9.50;99.90
23637;DHT22;11995;50.842;4.456;2023-04-01T22:14:41;9.40;99.90
23637;DHT22;11995;50.842;4.456;2023-04-01T22:17:25;9.40;99.90
23637;DHT22;11995;50.842;4.456;2023-04-01T22:25:28;9.30;99.90
23637;DHT22;11995;50.842;4.456;2023-04-01T22:28:13;9.40;99.90
23637;DHT22;11995;50.842;4.456;2023-04-01T22:30:53;9.30;99.90
23637;DHT22;11995;50.842;4.456;2023-04-01T22:33:41;9.30;99.90
23637;DHT22;11995;50.842;4.456;2023-04-01T22:39:01;9.30;99.90
23637;DHT22;11995;50.842;4.456;2023-04-01T22:43:57;9.40;99.90
23637;DHT22;11995;50.842;4.456;2023-04-01T22:49:29;9.50;99.90
23637;DHT22;11995;50.842;4.456;2023-04-01T22:52:23;9.50;99.90
23637;DHT22;11995;50.842;4.456;2023-04-01T22:54:54;9.50;99.90
23637;DHT22;11995;50.842;4.456;2023-04-01T23:00:25;9.40;99.90
23637;DHT22;11995;50.842;4.456;2023-04-01T23:05:53;9.30;99.90
23637;DHT22;11995;50.842;4.456;2023-04-01T23:11:00;9.10;99.90
23637;DHT22;11995;50.842;4.456;2023-04-01T23:13:40;9.30;99.90
23637;DHT22;11995;50.842;4.456;2023-04-01T23:16:09;9.30;99.90
23637;DHT22;11995;50.842;4.456;2023-04-01T23:18:50;9.20;99.90
23637;DHT22;11995;50.842;4.456;2023-04-01T23:21:18;9.10;99.90
23637;DHT22;11995;50.842;4.456;2023-04-01T23:23:55;9.10;99.90
23637;DHT22;11995;50.842;4.456;2023-04-01T23:26:29;9.00;99.90
23637;DHT22;11995;50.842;4.456;2023-04-01T23:28:56;9.00;99.90
23637;DHT22;11995;50.842;4.456;2023-04-01T23:34:15;9.00;99.90
23637;DHT22;11995;50.842;4.456;2023-04-01T23:36:37;9.00;99.90
23637;DHT22;11995;50.842;4.456;2023-04-01T23:39:18;9.00;99.90
23637;DHT22;11995;50.842;4.456;2023-04-01T23:41:34;9.00;99.90
23637;DHT22;11995;50.842;4.456;2023-04-01T23:44:11;8.90;99.90
23637;DHT22;11995;50.842;4.456;2023-04-01T23:46:35;8.90;99.90
23637;DHT22;11995;50.842;4.456;2023-04-01T23:49:06;8.80;99.90
23637;DHT22;11995;50.842;4.456;2023-04-01T23:51:39;8.90;99.90
23637;DHT22;11995;50.842;4.456;2023-04-01T23:54:15;9.00;99.90
23637;DHT22;11995;50.842;4.456;2023-04-01T23:56:45;8.90;99.90
23637;DHT22;11995;50.842;4.456;2023-04-01T23:59:38;8.90;99.90
